createdAt,value
2023-03-06T00:00:38.092Z,12.55
2023-03-06T00:03:05.411Z,13.00
2023-03-06T00:05:32.205Z,12.95
2023-03-06T00:07:58.962Z,12.57
2023-03-06T00:10:29.857Z,13.90
2023-03-06T00:12:58.620Z,12.88
2023-03-06T00:15:26.193Z,14.13
2023-03-06T00:17:53.683Z,14.23
2023-03-06T00:20:21.060Z,13.90
2023-03-06T00:22:48.163Z,13.07
2023-03-06T00:25:20.567Z,14.70
2023-03-06T00:27:47.604Z,14.40
2023-03-06T00:30:19.468Z,13.45
2023-03-06T00:32:46.163Z,14.30
2023-03-06T00:35:13.508Z,14.45
2023-03-06T00:37:43.110Z,13.43
2023-03-06T00:40:12.969Z,13.98
2023-03-06T00:42:39.693Z,16.10
2023-03-06T00:45:06.947Z,15.40
2023-03-06T00:47:33.651Z,18.15
2023-03-06T00:50:00.330Z,17.10
2023-03-06T00:52:26.976Z,18.95
2023-03-06T00:54:53.753Z,16.38
2023-03-06T00:57:20.409Z,17.77
2023-03-06T00:59:47.150Z,17.17
2023-03-06T01:02:13.937Z,17.85
2023-03-06T01:04:40.801Z,18.05
2023-03-06T01:07:07.481Z,16.48
2023-03-06T01:09:34.150Z,16.05
2023-03-06T01:12:00.796Z,15.70
2023-03-06T01:14:27.829Z,17.13
2023-03-06T01:16:54.495Z,17.17
2023-03-06T01:19:21.156Z,15.80
2023-03-06T01:21:47.949Z,16.42
2023-03-06T01:24:14.597Z,16.52
2023-03-06T01:26:41.269Z,16.67
2023-03-06T01:29:07.893Z,18.02
2023-03-06T01:31:34.668Z,17.60
2023-03-06T01:34:01.517Z,17.90
2023-03-06T01:36:28.284Z,19.00
2023-03-06T01:38:55.025Z,17.02
2023-03-06T01:41:21.961Z,17.45
2023-03-06T01:43:48.894Z,16.80
2023-03-06T01:46:33.830Z,15.98
2023-03-06T01:49:08.119Z,14.95
2023-03-06T01:51:41.381Z,14.32
2023-03-06T01:54:31.199Z,14.77
2023-03-06T01:57:01.957Z,9.88
2023-03-06T01:59:29.696Z,10.93
2023-03-06T02:01:58.660Z,8.80
2023-03-06T02:04:25.337Z,8.68
2023-03-06T02:06:52.045Z,9.32
2023-03-06T02:09:18.787Z,5.47
2023-03-06T02:11:46.330Z,7.65
2023-03-06T02:14:15.566Z,5.05
2023-03-06T02:16:43.061Z,6.88
2023-03-06T02:19:23.593Z,5.78
2023-03-06T02:21:50.347Z,7.05
2023-03-06T02:24:35.364Z,6.25
2023-03-06T02:27:03.888Z,6.43
2023-03-06T02:29:31.743Z,6.53
2023-03-06T02:32:02.024Z,5.97
2023-03-06T02:34:28.741Z,6.47
2023-03-06T02:37:00.141Z,7.03
2023-03-06T02:39:28.756Z,7.45
2023-03-06T02:41:55.502Z,6.63
2023-03-06T02:44:23.065Z,6.90
2023-03-06T02:46:49.941Z,7.20
2023-03-06T02:49:16.724Z,7.25
2023-03-06T02:51:43.356Z,8.27
2023-03-06T02:54:11.915Z,7.05
2023-03-06T02:56:38.552Z,7.28
2023-03-06T02:59:05.213Z,6.82
2023-03-06T03:01:31.925Z,8.63
2023-03-06T03:03:58.609Z,7.88
2023-03-06T03:06:25.331Z,8.00
2023-03-06T03:08:52.964Z,7.75
2023-03-06T03:11:20.491Z,7.13
2023-03-06T03:13:47.366Z,6.95
2023-03-06T03:16:19.497Z,7.25
2023-03-06T03:18:47.865Z,6.22
2023-03-06T03:21:16.618Z,7.50
2023-03-06T03:23:44.265Z,7.82
2023-03-06T03:26:18.635Z,7.18
2023-03-06T03:28:52.851Z,7.40
2023-03-06T03:31:21.292Z,7.15
2023-03-06T03:33:47.979Z,7.47
2023-03-06T03:36:14.714Z,6.97
2023-03-06T03:38:45.059Z,7.60
2023-03-06T03:41:11.948Z,8.15
2023-03-06T03:43:38.643Z,8.82
2023-03-06T03:46:06.057Z,7.03
2023-03-06T03:48:32.954Z,6.80
2023-03-06T03:51:08.569Z,6.38
2023-03-06T03:53:39.117Z,8.30
2023-03-06T03:56:06.998Z,7.72
2023-03-06T03:58:38.523Z,7.30
2023-03-06T04:01:05.596Z,7.10
2023-03-06T04:03:32.781Z,6.72
2023-03-06T04:05:59.939Z,6.78
2023-03-06T04:08:27.837Z,7.07
2023-03-06T04:10:54.971Z,6.90
2023-03-06T04:13:23.447Z,5.40
2023-03-06T04:15:52.499Z,7.40
2023-03-06T04:18:21.780Z,6.70
2023-03-06T04:20:49.561Z,7.00
2023-03-06T04:23:19.253Z,7.57
2023-03-06T04:25:46.549Z,7.47
2023-03-06T04:28:13.647Z,8.07
2023-03-06T04:30:40.522Z,8.13
2023-03-06T04:33:07.538Z,8.88
2023-03-06T04:35:34.789Z,8.15
2023-03-06T04:38:06.297Z,6.05
2023-03-06T04:40:34.923Z,7.93
2023-03-06T04:43:02.464Z,8.45
2023-03-06T04:45:29.788Z,7.18
2023-03-06T04:47:56.602Z,6.38
2023-03-06T04:50:24.104Z,6.40
2023-03-06T04:52:51.265Z,7.55
2023-03-06T04:55:18.807Z,8.75
2023-03-06T04:57:47.218Z,8.32
2023-03-06T05:00:25.200Z,7.57
2023-03-06T05:02:52.529Z,9.45
2023-03-06T05:05:19.537Z,8.75
2023-03-06T05:07:46.205Z,8.35
2023-03-06T05:10:16.566Z,8.55
2023-03-06T05:12:43.439Z,7.35
2023-03-06T05:15:11.406Z,9.10
2023-03-06T05:17:38.666Z,8.85
2023-03-06T05:20:08.064Z,8.70
2023-03-06T05:22:34.796Z,9.18
2023-03-06T05:25:01.550Z,9.80
2023-03-06T05:27:28.658Z,8.93
2023-03-06T05:29:55.476Z,10.45
2023-03-06T05:32:22.382Z,11.05
2023-03-06T05:34:49.648Z,9.55
2023-03-06T05:37:16.558Z,10.20
2023-03-06T05:39:43.332Z,10.68
2023-03-06T05:42:10.168Z,10.38
2023-03-06T05:44:37.202Z,10.27
2023-03-06T05:47:04.499Z,8.63
2023-03-06T05:49:35.792Z,8.93
2023-03-06T05:52:04.236Z,8.15
2023-03-06T05:54:31.866Z,7.70
2023-03-06T05:56:58.626Z,6.68
2023-03-06T05:59:29.108Z,7.50
2023-03-06T06:01:56.334Z,7.95
2023-03-06T06:04:24.626Z,8.05
2023-03-06T06:06:58.534Z,6.90
2023-03-06T06:09:25.892Z,7.60
2023-03-06T06:11:57.070Z,8.05
2023-03-06T06:14:23.961Z,8.40
2023-03-06T06:16:50.920Z,6.70
2023-03-06T06:19:20.469Z,8.40
2023-03-06T06:21:54.062Z,9.50
2023-03-06T06:24:22.985Z,6.85
2023-03-06T06:26:51.243Z,8.68
2023-03-06T06:29:17.878Z,8.77
2023-03-06T06:31:44.636Z,8.50
2023-03-06T06:34:12.393Z,9.23
2023-03-06T06:36:39.897Z,9.10
2023-03-06T06:39:07.748Z,7.88
2023-03-06T06:41:54.914Z,10.32
2023-03-06T06:44:21.820Z,10.05
2023-03-06T06:47:21.195Z,9.95
2023-03-06T06:49:36.775Z,8.93
2023-03-06T06:52:04.369Z,8.88
2023-03-06T06:54:31.016Z,8.32
2023-03-06T06:56:57.746Z,8.02
2023-03-06T06:59:24.379Z,9.23
2023-03-06T07:01:52.158Z,9.43
2023-03-06T07:04:19.377Z,9.45
2023-03-06T07:06:46.427Z,8.85
2023-03-06T07:09:13.753Z,9.18
2023-03-06T07:11:40.993Z,9.57
2023-03-06T07:14:07.981Z,8.23
2023-03-06T07:16:35.022Z,9.25
2023-03-06T07:19:01.758Z,9.13
2023-03-06T07:21:28.429Z,10.07
2023-03-06T07:23:57.337Z,9.45
2023-03-06T07:26:25.827Z,10.32
2023-03-06T07:28:55.502Z,10.15
2023-03-06T07:31:25.052Z,10.15
2023-03-06T07:33:52.868Z,8.77
2023-03-06T07:36:20.823Z,10.00
2023-03-06T07:38:48.240Z,11.70
2023-03-06T07:41:16.506Z,13.63
2023-03-06T07:43:44.859Z,13.02
2023-03-06T07:46:13.549Z,13.90
2023-03-06T07:48:40.368Z,14.20
2023-03-06T07:51:19.443Z,14.77
2023-03-06T07:53:46.510Z,16.48
2023-03-06T07:56:13.396Z,16.77
2023-03-06T07:58:42.413Z,17.40
2023-03-06T08:01:14.362Z,16.95
2023-03-06T08:03:41.123Z,14.93
2023-03-06T08:06:15.071Z,18.17
2023-03-06T08:08:43.108Z,14.50
2023-03-06T08:11:11.221Z,16.15
2023-03-06T08:13:38.400Z,14.80
2023-03-06T08:16:05.769Z,13.65
2023-03-06T08:18:32.492Z,13.50
2023-03-06T08:21:06.393Z,16.50
2023-03-06T08:23:34.293Z,15.38
2023-03-06T08:26:12.237Z,15.65
2023-03-06T08:28:39.273Z,16.48
2023-03-06T08:31:23.319Z,17.52
2023-03-06T08:33:50.310Z,16.58
2023-03-06T08:36:16.983Z,8.60
2023-03-06T08:38:43.718Z,16.02
2023-03-06T08:41:10.677Z,16.85
2023-03-06T08:43:37.479Z,15.70
2023-03-06T08:46:04.320Z,15.88
2023-03-06T08:48:31.426Z,13.45
2023-03-06T08:50:58.110Z,15.13
2023-03-06T08:53:40.453Z,16.27
2023-03-06T08:56:28.395Z,15.57
2023-03-06T08:58:56.510Z,16.42
2023-03-06T09:01:28.790Z,15.80
2023-03-06T09:03:57.220Z,15.10
2023-03-06T09:06:25.566Z,16.30
2023-03-06T09:08:53.101Z,15.27
2023-03-06T09:11:21.215Z,16.58
2023-03-06T09:13:48.105Z,17.05
2023-03-06T09:16:14.882Z,14.32
2023-03-06T09:18:41.919Z,15.98
2023-03-06T09:21:11.969Z,16.40
2023-03-06T09:23:39.605Z,11.75
2023-03-06T09:26:07.517Z,17.50
2023-03-06T09:28:39.258Z,15.57
2023-03-06T09:31:14.725Z,14.85
2023-03-06T09:33:41.661Z,16.13
2023-03-06T09:36:10.365Z,15.95
2023-03-06T09:38:37.158Z,15.45
2023-03-06T09:41:12.626Z,16.23
2023-03-06T09:43:46.113Z,14.43
2023-03-06T09:46:40.151Z,16.13
2023-03-06T09:49:37.509Z,16.98
2023-03-06T09:52:30.136Z,16.08
2023-03-06T09:55:00.178Z,14.88
2023-03-06T09:57:47.232Z,15.35
2023-03-06T10:00:16.058Z,15.40
2023-03-06T10:03:07.709Z,16.35
2023-03-06T10:05:50.983Z,14.82
2023-03-06T10:08:25.529Z,13.65
2023-03-06T10:11:03.992Z,10.25
2023-03-06T10:13:46.146Z,10.70
2023-03-06T10:16:19.527Z,9.98
2023-03-06T10:18:46.257Z,13.32
2023-03-06T10:21:29.694Z,14.93
2023-03-06T10:24:28.575Z,12.45
2023-03-06T10:27:11.336Z,12.30
2023-03-06T10:30:02.250Z,12.40
2023-03-06T10:32:49.285Z,13.13
2023-03-06T10:35:22.926Z,11.88
2023-03-06T10:37:49.675Z,13.70
2023-03-06T10:40:20.347Z,10.32
2023-03-06T10:42:47.064Z,9.05
2023-03-06T10:45:15.600Z,8.95
2023-03-06T10:47:42.626Z,9.65
2023-03-06T10:50:27.069Z,10.38
2023-03-06T10:53:06.085Z,11.32
2023-03-06T10:55:34.922Z,9.50
2023-03-06T10:58:24.683Z,9.50
2023-03-06T11:01:26.907Z,8.90
2023-03-06T11:03:54.141Z,9.32
2023-03-06T11:06:37.886Z,8.65
2023-03-06T11:09:36.997Z,8.93
2023-03-06T11:12:23.520Z,7.65
2023-03-06T11:15:15.171Z,9.18
2023-03-06T11:18:24.097Z,8.95
2023-03-06T11:20:53.269Z,8.52
2023-03-06T11:23:38.779Z,8.70
2023-03-06T11:26:18.500Z,8.43
2023-03-06T11:28:54.227Z,8.98
2023-03-06T11:31:26.794Z,9.07
2023-03-06T11:34:10.058Z,9.45
2023-03-06T11:36:48.979Z,8.43
2023-03-06T11:39:43.706Z,8.82
2023-03-06T11:42:34.761Z,9.18
2023-03-06T11:45:27.472Z,8.80
2023-03-06T11:48:16.641Z,8.82
2023-03-06T11:50:50.340Z,9.35
2023-03-06T11:53:28.983Z,6.28
2023-03-06T11:55:59.423Z,8.77
2023-03-06T11:58:38.317Z,8.32
2023-03-06T12:01:32.081Z,8.00
2023-03-06T12:04:32.255Z,7.80
2023-03-06T12:07:11.008Z,7.82
2023-03-06T12:09:50.058Z,8.02
2023-03-06T12:12:37.024Z,8.02
2023-03-06T12:15:15.896Z,8.32
2023-03-06T12:17:51.876Z,7.03
2023-03-06T12:20:35.217Z,5.63
2023-03-06T12:23:22.689Z,6.57
2023-03-06T12:26:42.468Z,6.80
2023-03-06T12:29:28.584Z,6.13
2023-03-06T12:32:18.874Z,7.53
2023-03-06T12:34:54.588Z,6.93
2023-03-06T12:37:26.930Z,8.98
2023-03-06T12:40:21.458Z,7.72
2023-03-06T12:43:27.145Z,8.93
2023-03-06T12:46:16.068Z,7.68
2023-03-06T12:48:48.857Z,7.97
2023-03-06T12:51:18.357Z,7.97
2023-03-06T12:53:45.512Z,8.30
2023-03-06T12:56:15.631Z,7.53
2023-03-06T12:58:54.973Z,7.75
2023-03-06T13:01:43.047Z,9.30
2023-03-06T13:04:31.883Z,8.63
2023-03-06T13:07:18.738Z,7.90
2023-03-06T13:10:06.816Z,8.13
2023-03-06T13:12:51.414Z,8.63
2023-03-06T13:15:37.731Z,7.75
2023-03-06T13:18:42.858Z,7.75
2023-03-06T13:21:48.095Z,6.93
2023-03-06T13:24:19.295Z,6.50
2023-03-06T13:26:45.911Z,5.20
2023-03-06T13:29:37.388Z,5.60
2023-03-06T13:32:03.997Z,5.18
2023-03-06T13:34:37.270Z,5.38
2023-03-06T13:37:25.083Z,5.15
2023-03-06T13:40:01.646Z,4.75
2023-03-06T13:42:29.258Z,4.93
2023-03-06T13:44:57.624Z,4.80
2023-03-06T13:48:02.506Z,5.60
2023-03-06T13:50:28.663Z,5.18
2023-03-06T13:53:13.666Z,6.00
2023-03-06T13:55:52.158Z,5.22
2023-03-06T13:58:38.707Z,6.07
2023-03-06T14:01:26.810Z,5.97
2023-03-06T14:04:26.161Z,5.70
2023-03-06T14:07:10.021Z,5.80
2023-03-06T14:09:48.594Z,5.10
2023-03-06T14:12:32.209Z,5.80
2023-03-06T14:15:01.793Z,5.75
2023-03-06T14:17:33.887Z,6.05
2023-03-06T14:20:14.141Z,6.97
2023-03-06T14:22:40.860Z,6.43
2023-03-06T14:25:17.128Z,5.78
2023-03-06T14:27:48.687Z,6.45
2023-03-06T14:30:25.391Z,6.45
2023-03-06T14:32:55.526Z,5.97
2023-03-06T14:35:34.403Z,5.30
2023-03-06T14:38:04.566Z,6.32
2023-03-06T14:40:43.333Z,6.30
2023-03-06T14:43:20.589Z,7.00
2023-03-06T14:46:00.763Z,5.40
2023-03-06T14:48:44.405Z,3.95
2023-03-06T14:51:18.806Z,4.90
2023-03-06T14:53:46.981Z,3.22
2023-03-06T14:56:18.868Z,3.65
2023-03-06T14:58:55.117Z,3.25
2023-03-06T15:01:32.725Z,2.90
2023-03-06T15:04:00.931Z,2.60
2023-03-06T15:06:37.829Z,2.30
2023-03-06T15:09:20.838Z,2.22
2023-03-06T15:12:20.711Z,1.75
2023-03-06T15:15:18.249Z,2.53
2023-03-06T15:17:48.490Z,2.10
2023-03-06T15:20:42.038Z,3.22
2023-03-06T15:23:21.126Z,2.60
2023-03-06T15:25:56.081Z,2.67
2023-03-06T15:28:37.127Z,2.60
2023-03-06T15:31:24.848Z,2.60
2023-03-06T15:34:06.910Z,2.80
2023-03-06T15:36:41.011Z,3.00
2023-03-06T15:39:33.788Z,2.25
2023-03-06T15:42:20.253Z,3.30
2023-03-06T15:44:49.855Z,2.50
2023-03-06T15:47:20.302Z,2.83
2023-03-06T15:49:49.054Z,2.78
2023-03-06T15:52:15.819Z,2.67
2023-03-06T15:54:42.890Z,2.88
2023-03-06T15:57:18.626Z,3.00
2023-03-06T15:59:45.932Z,2.83
2023-03-06T16:02:18.521Z,2.75
2023-03-06T16:04:46.703Z,2.90
2023-03-06T16:07:16.523Z,4.00
2023-03-06T16:09:43.520Z,2.60
2023-03-06T16:12:20.841Z,3.05
2023-03-06T16:14:48.480Z,2.70
2023-03-06T16:17:15.784Z,2.35
2023-03-06T16:19:43.081Z,2.58
2023-03-06T16:22:09.847Z,3.20
2023-03-06T16:24:37.265Z,2.70
2023-03-06T16:27:04.320Z,2.83
2023-03-06T16:29:31.286Z,2.67
2023-03-06T16:31:58.903Z,2.45
2023-03-06T16:34:28.514Z,2.60
2023-03-06T16:36:55.128Z,2.53
2023-03-06T16:39:23.262Z,3.00
2023-03-06T16:41:50.084Z,2.67
2023-03-06T16:44:17.408Z,3.10
2023-03-06T16:46:47.014Z,3.28
2023-03-06T16:49:16.858Z,2.67
2023-03-06T16:51:43.575Z,3.08
2023-03-06T16:54:10.204Z,7.93
2023-03-06T16:56:36.875Z,8.55
2023-03-06T16:59:03.527Z,10.27
2023-03-06T17:01:30.257Z,11.40
2023-03-06T17:03:57.152Z,12.25
2023-03-06T17:06:23.849Z,11.73
2023-03-06T17:08:51.039Z,11.93
2023-03-06T17:11:20.207Z,11.10
2023-03-06T17:13:48.533Z,11.02
2023-03-06T17:16:16.836Z,10.27
2023-03-06T17:18:44.760Z,11.95
2023-03-06T17:21:12.165Z,10.13
2023-03-06T17:23:38.989Z,10.85
2023-03-06T17:26:08.779Z,10.75
2023-03-06T17:28:37.732Z,12.27
2023-03-06T17:31:17.658Z,12.48
2023-03-06T17:33:44.560Z,12.65
2023-03-06T17:36:12.646Z,12.90
2023-03-06T17:38:42.869Z,11.65
2023-03-06T17:41:10.712Z,13.05
2023-03-06T17:43:38.720Z,12.80
2023-03-06T17:46:07.190Z,11.60
2023-03-06T17:48:34.396Z,12.30
2023-03-06T17:51:02.903Z,11.90
2023-03-06T17:53:29.706Z,11.70
2023-03-06T17:55:59.679Z,12.85
2023-03-06T17:58:27.162Z,12.63
2023-03-06T18:00:54.053Z,12.82
2023-03-06T18:03:20.983Z,13.45
2023-03-06T18:05:47.656Z,13.00
2023-03-06T18:08:14.381Z,14.38
2023-03-06T18:10:41.663Z,12.18
2023-03-06T18:13:09.340Z,14.02
2023-03-06T18:15:41.027Z,12.45
2023-03-06T18:18:08.359Z,13.20
2023-03-06T18:20:41.042Z,12.20
2023-03-06T18:23:07.888Z,12.88
2023-03-06T18:25:37.851Z,12.95
2023-03-06T18:28:06.521Z,12.45
2023-03-06T18:30:38.109Z,14.23
2023-03-06T18:33:04.981Z,12.77
2023-03-06T18:35:31.897Z,13.95
2023-03-06T18:37:58.533Z,11.63
2023-03-06T18:40:25.292Z,13.93
2023-03-06T18:42:53.122Z,13.90
2023-03-06T18:45:21.123Z,13.70
2023-03-06T18:47:47.862Z,14.38
2023-03-06T18:50:17.452Z,14.10
2023-03-06T18:52:44.966Z,12.30
2023-03-06T18:55:12.485Z,14.13
2023-03-06T18:57:39.288Z,13.02
2023-03-06T19:00:07.117Z,13.93
2023-03-06T19:02:34.082Z,13.52
2023-03-06T19:05:00.717Z,14.20
2023-03-06T19:07:27.490Z,16.38
2023-03-06T19:09:54.391Z,14.88
2023-03-06T19:12:21.114Z,14.73
2023-03-06T19:14:47.878Z,14.52
2023-03-06T19:17:15.726Z,15.48
2023-03-06T19:19:42.392Z,14.13
2023-03-06T19:22:09.051Z,14.25
2023-03-06T19:24:35.857Z,14.35
2023-03-06T19:27:02.599Z,14.10
2023-03-06T19:29:29.347Z,15.13
2023-03-06T19:31:57.203Z,13.48
2023-03-06T19:34:24.112Z,14.63
2023-03-06T19:36:51.008Z,14.25
2023-03-06T19:39:17.772Z,13.90
2023-03-06T19:41:46.931Z,15.60
2023-03-06T19:44:14.583Z,15.02
2023-03-06T19:46:41.350Z,14.32
2023-03-06T19:49:12.089Z,15.30
2023-03-06T19:51:38.975Z,14.60
2023-03-06T19:54:05.874Z,12.95
2023-03-06T19:56:33.825Z,14.82
2023-03-06T19:59:00.593Z,12.02
2023-03-06T20:01:28.096Z,14.70
2023-03-06T20:03:59.339Z,14.88
2023-03-06T20:06:33.852Z,15.30
2023-03-06T20:09:01.909Z,14.73
2023-03-06T20:11:30.040Z,13.50
2023-03-06T20:14:00.908Z,15.90
2023-03-06T20:16:29.138Z,13.10
2023-03-06T20:18:59.052Z,14.32
2023-03-06T20:21:27.509Z,11.93
2023-03-06T20:23:56.952Z,12.82
2023-03-06T20:26:24.910Z,10.95
2023-03-06T20:28:51.604Z,11.50
2023-03-06T20:31:20.422Z,12.75
2023-03-06T20:33:49.098Z,11.65
2023-03-06T20:36:18.373Z,14.57
2023-03-06T20:38:45.396Z,13.48
2023-03-06T20:41:24.216Z,12.52
2023-03-06T20:43:51.177Z,10.90
2023-03-06T20:46:19.214Z,11.80
2023-03-06T20:48:48.683Z,13.15
2023-03-06T20:51:19.510Z,14.30
2023-03-06T20:53:47.558Z,13.07
2023-03-06T20:56:15.822Z,13.25
2023-03-06T20:58:42.988Z,12.23
2023-03-06T21:01:09.782Z,12.70
2023-03-06T21:03:36.477Z,14.20
2023-03-06T21:06:04.530Z,13.63
2023-03-06T21:08:31.464Z,12.77
2023-03-06T21:11:00.207Z,14.05
2023-03-06T21:13:26.887Z,13.45
2023-03-06T21:15:53.702Z,12.68
2023-03-06T21:18:20.462Z,11.77
2023-03-06T21:20:50.166Z,12.52
2023-03-06T21:23:17.544Z,12.68
2023-03-06T21:25:52.124Z,13.18
2023-03-06T21:28:19.175Z,11.60
2023-03-06T21:30:46.070Z,12.10
2023-03-06T21:33:13.420Z,11.27
2023-03-06T21:35:40.904Z,10.15
2023-03-06T21:38:09.341Z,11.13
2023-03-06T21:40:36.170Z,11.27
2023-03-06T21:43:03.522Z,11.68
2023-03-06T21:45:30.767Z,10.48
2023-03-06T21:48:00.330Z,12.82
2023-03-06T21:50:27.782Z,11.85
2023-03-06T21:52:56.020Z,9.07
2023-03-06T21:55:22.962Z,12.10
2023-03-06T21:57:51.984Z,12.07
2023-03-06T22:00:19.717Z,11.43
2023-03-06T22:02:47.041Z,12.77
2023-03-06T22:05:13.849Z,12.48
2023-03-06T22:07:42.409Z,12.65
2023-03-06T22:10:15.868Z,12.48
2023-03-06T22:12:42.557Z,12.02
2023-03-06T22:15:09.833Z,12.30
2023-03-06T22:17:36.540Z,11.93
2023-03-06T22:20:04.320Z,12.50
2023-03-06T22:22:31.089Z,11.88
2023-03-06T22:24:58.140Z,13.20
2023-03-06T22:27:24.898Z,12.93
2023-03-06T22:29:52.657Z,12.35
2023-03-06T22:32:20.549Z,12.73
2023-03-06T22:34:47.349Z,13.10
2023-03-06T22:37:14.155Z,13.50
2023-03-06T22:39:40.820Z,14.82
2023-03-06T22:42:07.929Z,13.07
2023-03-06T22:44:34.629Z,14.23
2023-03-06T22:47:01.384Z,13.65
2023-03-06T22:49:28.084Z,13.70
2023-03-06T22:51:54.793Z,14.32
2023-03-06T22:54:21.454Z,14.00
2023-03-06T22:56:48.100Z,13.35
2023-03-06T22:59:14.737Z,15.70
2023-03-06T23:01:41.905Z,13.68
2023-03-06T23:04:11.270Z,10.68
2023-03-06T23:06:40.469Z,13.25
2023-03-06T23:09:21.390Z,10.90
2023-03-06T23:12:08.937Z,11.63
2023-03-06T23:14:54.671Z,14.32
2023-03-06T23:17:40.172Z,13.50
2023-03-06T23:20:25.784Z,12.55
2023-03-06T23:23:11.290Z,10.93
2023-03-06T23:25:40.521Z,11.63
2023-03-06T23:28:07.644Z,9.07
2023-03-06T23:30:34.267Z,11.52
2023-03-06T23:33:00.911Z,12.48
2023-03-06T23:35:27.705Z,13.00
2023-03-06T23:37:54.506Z,13.70
2023-03-06T23:40:22.033Z,13.35
2023-03-06T23:42:48.748Z,12.63
2023-03-06T23:45:15.700Z,13.02
2023-03-06T23:47:42.401Z,12.65
2023-03-06T23:50:09.671Z,11.73
2023-03-06T23:52:36.429Z,12.45
2023-03-06T23:55:03.101Z,11.98
2023-03-06T23:57:30.729Z,13.15
2023-03-06T23:59:57.429Z,12.88
